sensor_id;sensor_type;location;lat;lon;timestamp;pressure;altitude;pressure_sealevel;temperature;humidity
12759;BME280;20944;47.048;15.390;2023-05-20T00:01:23;97942.41;;;15.14;100.00
12759;BME280;20944;47.048;15.390;2023-05-20T00:03:52;97947.56;;;15.17;100.00
12759;BME280;20944;47.048;15.390;2023-05-20T00:06:20;97935.66;;;15.06;100.00
12759;BME280;20944;47.048;15.390;2023-05-20T00:08:48;97912.53;;;14.91;100.00
12759;BME280;20944;47.048;15.390;2023-05-20T00:11:17;97930.88;;;14.94;100.00
12759;BME280;20944;47.048;15.390;2023-05-20T00:13:45;97933.50;;;14.94;100.00
12759;BME280;20944;47.048;15.390;2023-05-20T00:16:14;97931.63;;;14.98;100.00
12759;BME280;20944;47.048;15.390;2023-05-20T00:18:43;97936.59;;;14.83;100.00
12759;BME280;20944;47.048;15.390;2023-05-20T00:21:12;97898.63;;;14.66;100.00
12759;BME280;20944;47.048;15.390;2023-05-20T00:23:40;97930.94;;;14.93;100.00
12759;BME280;20944;47.048;15.390;2023-05-20T00:26:09;97916.34;;;14.84;100.00
12759;BME280;20944;47.048;15.390;2023-05-20T00:28:37;97927.16;;;14.78;100.00
12759;BME280;20944;47.048;15.390;2023-05-20T00:31:05;97925.38;;;14.78;100.00
12759;BME280;20944;47.048;15.390;2023-05-20T00:33:35;97922.53;;;14.83;100.00
12759;BME280;20944;47.048;15.390;2023-05-20T00:36:05;97862.91;;;14.57;100.00
12759;BME280;20944;47.048;15.390;2023-05-20T00:38:33;97926.53;;;14.93;100.00
12759;BME280;20944;47.048;15.390;2023-05-20T00:41:02;97922.84;;;14.97;100.00
12759;BME280;20944;47.048;15.390;2023-05-20T00:43:30;97926.19;;;15.01;100.00
12759;BME280;20944;47.048;15.390;2023-05-20T00:45:59;97935.41;;;15.13;100.00
12759;BME280;20944;47.048;15.390;2023-05-20T00:48:32;97941.44;;;15.16;100.00
12759;BME280;20944;47.048;15.390;2023-05-20T00:51:04;97929.09;;;15.17;100.00
12759;BME280;20944;47.048;15.390;2023-05-20T00:53:34;97738.91;;;13.93;100.00
12759;BME280;20944;47.048;15.390;2023-05-20T00:56:03;97935.66;;;15.06;100.00
12759;BME280;20944;47.048;15.390;2023-05-20T00:58:32;97933.00;;;15.06;100.00
12759;BME280;20944;47.048;15.390;2023-05-20T01:01:02;97911.53;;;15.16;100.00
12759;BME280;20944;47.048;15.390;2023-05-20T01:03:31;97917.06;;;15.09;100.00
12759;BME280;20944;47.048;15.390;2023-05-20T01:06:00;97934.78;;;15.06;100.00
12759;BME280;20944;47.048;15.390;2023-05-20T01:08:30;97927.72;;;15.06;100.00
12759;BME280;20944;47.048;15.390;2023-05-20T01:11:03;97922.09;;;15.16;100.00
12759;BME280;20944;47.048;15.390;2023-05-20T01:13:38;97926.06;;;15.26;100.00
12759;BME280;20944;47.048;15.390;2023-05-20T01:16:10;97915.97;;;15.15;100.00
12759;BME280;20944;47.048;15.390;2023-05-20T01:18:41;97904.50;;;15.15;100.00
12759;BME280;20944;47.048;15.390;2023-05-20T01:21:12;97893.59;;;15.02;100.00
12759;BME280;20944;47.048;15.390;2023-05-20T01:23:42;97909.34;;;15.05;100.00
12759;BME280;20944;47.048;15.390;2023-05-20T01:26:11;97908.47;;;15.04;100.00
12759;BME280;20944;47.048;15.390;2023-05-20T01:28:41;97903.13;;;15.06;100.00
12759;BME280;20944;47.048;15.390;2023-05-20T01:31:14;97897.91;;;15.04;100.00
12759;BME280;20944;47.048;15.390;2023-05-20T01:33:46;97902.28;;;15.05;100.00
12759;BME280;20944;47.048;15.390;2023-05-20T01:36:17;97897.78;;;15.07;100.00
12759;BME280;20944;47.048;15.390;2023-05-20T01:38:48;97914.28;;;15.13;100.00
12759;BME280;20944;47.048;15.390;2023-05-20T01:41:18;97904.91;;;15.05;100.00
12759;BME280;20944;47.048;15.390;2023-05-20T01:43:48;97896.91;;;15.07;100.00
12759;BME280;20944;47.048;15.390;2023-05-20T01:46:16;97900.38;;;15.09;100.00
12759;BME280;20944;47.048;15.390;2023-05-20T01:48:44;97900.31;;;15.10;100.00
12759;BME280;20944;47.048;15.390;2023-05-20T01:51:13;97890.00;;;15.04;100.00
12759;BME280;20944;47.048;15.390;2023-05-20T01:53:41;97832.53;;;14.69;100.00
12759;BME280;20944;47.048;15.390;2023-05-20T01:56:11;97885.03;;;14.97;100.00
12759;BME280;20944;47.048;15.390;2023-05-20T01:58:39;97889.66;;;14.92;100.00
12759;BME280;20944;47.048;15.390;2023-05-20T02:01:08;97885.16;;;14.94;100.00
12759;BME280;20944;47.048;15.390;2023-05-20T02:03:36;97870.56;;;14.85;100.00
12759;BME280;20944;47.048;15.390;2023-05-20T02:06:04;97881.94;;;15.07;100.00
12759;BME280;20944;47.048;15.390;2023-05-20T02:08:33;97875.81;;;15.07;100.00
12759;BME280;20944;47.048;15.390;2023-05-20T02:11:01;97882.00;;;15.06;100.00
12759;BME280;20944;47.048;15.390;2023-05-20T02:13:31;97878.94;;;14.95;100.00
12759;BME280;20944;47.048;15.390;2023-05-20T02:15:59;97873.91;;;14.89;100.00
12759;BME280;20944;47.048;15.390;2023-05-20T02:18:28;97870.38;;;14.90;100.00
12759;BME280;20944;47.048;15.390;2023-05-20T02:20:56;97870.06;;;14.97;100.00
12759;BME280;20944;47.048;15.390;2023-05-20T02:23:29;97895.34;;;15.03;100.00
12759;BME280;20944;47.048;15.390;2023-05-20T02:25:58;97904.72;;;14.88;100.00
12759;BME280;20944;47.048;15.390;2023-05-20T02:28:26;97906.31;;;14.70;100.00
12759;BME280;20944;47.048;15.390;2023-05-20T02:30:56;97900.44;;;14.64;100.00
12759;BME280;20944;47.048;15.390;2023-05-20T02:33:24;97905.00;;;14.60;100.00
12759;BME280;20944;47.048;15.390;2023-05-20T02:35:54;97839.41;;;14.06;100.00
12759;BME280;20944;47.048;15.390;2023-05-20T02:38:23;97907.31;;;14.44;100.00
12759;BME280;20944;47.048;15.390;2023-05-20T02:40:52;97885.84;;;14.31;100.00
12759;BME280;20944;47.048;15.390;2023-05-20T02:43:20;97883.69;;;14.19;100.00
12759;BME280;20944;47.048;15.390;2023-05-20T02:45:48;97860.44;;;14.07;100.00
12759;BME280;20944;47.048;15.390;2023-05-20T02:48:18;97882.66;;;14.23;100.00
12759;BME280;20944;47.048;15.390;2023-05-20T02:50:47;97890.72;;;14.42;100.00
12759;BME280;20944;47.048;15.390;2023-05-20T02:53:15;97902.00;;;14.46;100.00
12759;BME280;20944;47.048;15.390;2023-05-20T02:55:45;97910.03;;;14.43;100.00
12759;BME280;20944;47.048;15.390;2023-05-20T02:58:14;97889.09;;;14.38;100.00
12759;BME280;20944;47.048;15.390;2023-05-20T03:00:43;97891.75;;;14.38;100.00
12759;BME280;20944;47.048;15.390;2023-05-20T03:03:11;97886.59;;;14.35;100.00
12759;BME280;20944;47.048;15.390;2023-05-20T03:05:42;97885.16;;;14.50;100.00
12759;BME280;20944;47.048;15.390;2023-05-20T03:08:11;97893.13;;;14.48;100.00
12759;BME280;20944;47.048;15.390;2023-05-20T03:10:40;97862.19;;;14.30;100.00
12759;BME280;20944;47.048;15.390;2023-05-20T03:13:09;97892.97;;;14.53;100.00
12759;BME280;20944;47.048;15.390;2023-05-20T03:15:37;97879.53;;;14.59;100.00
12759;BME280;20944;47.048;15.390;2023-05-20T03:18:06;97890.34;;;14.53;100.00
12759;BME280;20944;47.048;15.390;2023-05-20T03:20:35;97834.03;;;14.30;100.00
12759;BME280;20944;47.048;15.390;2023-05-20T03:23:05;97885.47;;;14.64;100.00
12759;BME280;20944;47.048;15.390;2023-05-20T03:25:34;97879.41;;;14.39;100.00
12759;BME280;20944;47.048;15.390;2023-05-20T03:28:03;97900.75;;;14.56;100.00
12759;BME280;20944;47.048;15.390;2023-05-20T03:30:32;97900.50;;;14.62;100.00
12759;BME280;20944;47.048;15.390;2023-05-20T03:33:00;97897.16;;;14.59;100.00
12759;BME280;20944;47.048;15.390;2023-05-20T03:35:29;97899.78;;;14.59;100.00
12759;BME280;20944;47.048;15.390;2023-05-20T03:37:57;97811.09;;;14.11;100.00
12759;BME280;20944;47.048;15.390;2023-05-20T03:40:29;97897.78;;;14.64;100.00
12759;BME280;20944;47.048;15.390;2023-05-20T03:42:57;97904.94;;;14.62;100.00
12759;BME280;20944;47.048;15.390;2023-05-20T03:45:25;97902.22;;;14.63;100.00
12759;BME280;20944;47.048;15.390;2023-05-20T03:47:54;97899.66;;;14.62;100.00
12759;BME280;20944;47.048;15.390;2023-05-20T03:50:22;97779.09;;;13.98;100.00
12759;BME280;20944;47.048;15.390;2023-05-20T03:52:51;97896.38;;;14.77;100.00
12759;BME280;20944;47.048;15.390;2023-05-20T03:55:19;97901.63;;;14.78;100.00
12759;BME280;20944;47.048;15.390;2023-05-20T03:57:49;97905.81;;;14.84;100.00
12759;BME280;20944;47.048;15.390;2023-05-20T04:00:17;97901.16;;;14.89;100.00
12759;BME280;20944;47.048;15.390;2023-05-20T04:02:46;97906.09;;;14.98;100.00
12759;BME280;20944;47.048;15.390;2023-05-20T04:05:14;97901.66;;;14.99;100.00
12759;BME280;20944;47.048;15.390;2023-05-20T04:07:43;97905.84;;;15.04;100.00
12759;BME280;20944;47.048;15.390;2023-05-20T04:10:11;97904.41;;;15.18;100.00
12759;BME280;20944;47.048;15.390;2023-05-20T04:12:39;97901.00;;;15.14;100.00
12759;BME280;20944;47.048;15.390;2023-05-20T04:15:11;97907.22;;;15.13;100.00
12759;BME280;20944;47.048;15.390;2023-05-20T04:17:40;97910.69;;;15.15;100.00
12759;BME280;20944;47.048;15.390;2023-05-20T04:20:09;97907.91;;;15.18;100.00
12759;BME280;20944;47.048;15.390;2023-05-20T04:22:37;97910.53;;;15.18;100.00
12759;BME280;20944;47.048;15.390;2023-05-20T04:25:07;97915.56;;;15.24;100.00
12759;BME280;20944;47.048;15.390;2023-05-20T04:27:35;97918.81;;;15.31;100.00
12759;BME280;20944;47.048;15.390;2023-05-20T04:30:06;97911.63;;;15.34;100.00
12759;BME280;20944;47.048;15.390;2023-05-20T04:32:37;97901.19;;;15.31;100.00
12759;BME280;20944;47.048;15.390;2023-05-20T04:35:05;97881.56;;;15.37;100.00
12759;BME280;20944;47.048;15.390;2023-05-20T04:37:38;97878.25;;;15.52;100.00
12759;BME280;20944;47.048;15.390;2023-05-20T04:40:07;97901.53;;;15.85;100.00
12759;BME280;20944;47.048;15.390;2023-05-20T04:42:35;97900.16;;;15.95;100.00
12759;BME280;20944;47.048;15.390;2023-05-20T04:45:05;97892.13;;;15.98;100.00
12759;BME280;20944;47.048;15.390;2023-05-20T04:47:34;97901.91;;;16.15;100.00
12759;BME280;20944;47.048;15.390;2023-05-20T04:50:08;97901.31;;;16.29;100.00
12759;BME280;20944;47.048;15.390;2023-05-20T04:52:38;97913.16;;;16.39;100.00
12759;BME280;20944;47.048;15.390;2023-05-20T04:55:08;97898.09;;;16.41;100.00
12759;BME280;20944;47.048;15.390;2023-05-20T04:57:37;97896.78;;;16.50;100.00
12759;BME280;20944;47.048;15.390;2023-05-20T05:00:10;97894.63;;;16.58;100.00
12759;BME280;20944;47.048;15.390;2023-05-20T05:02:39;97895.25;;;16.63;100.00
12759;BME280;20944;47.048;15.390;2023-05-20T05:05:09;97895.72;;;16.73;100.00
12759;BME280;20944;47.048;15.390;2023-05-20T05:07:37;97892.84;;;16.77;100.00
12759;BME280;20944;47.048;15.390;2023-05-20T05:10:06;97894.00;;;16.71;100.00
12759;BME280;20944;47.048;15.390;2023-05-20T05:12:35;97898.22;;;16.76;100.00
12759;BME280;20944;47.048;15.390;2023-05-20T05:15:04;97897.44;;;16.74;100.00
12759;BME280;20944;47.048;15.390;2023-05-20T05:17:33;97900.94;;;16.74;100.00
12759;BME280;20944;47.048;15.390;2023-05-20T05:20:01;97905.56;;;16.69;100.00
12759;BME280;20944;47.048;15.390;2023-05-20T05:22:31;97895.63;;;16.55;100.00
12759;BME280;20944;47.048;15.390;2023-05-20T05:25:02;97902.19;;;16.46;100.00
12759;BME280;20944;47.048;15.390;2023-05-20T05:27:30;97912.50;;;16.34;100.00
12759;BME280;20944;47.048;15.390;2023-05-20T05:29:59;97911.78;;;16.30;100.00
12759;BME280;20944;47.048;15.390;2023-05-20T05:32:27;97870.69;;;16.04;100.00
12759;BME280;20944;47.048;15.390;2023-05-20T05:34:55;97918.88;;;16.30;100.00
12759;BME280;20944;47.048;15.390;2023-05-20T05:37:24;97917.66;;;16.37;100.00
12759;BME280;20944;47.048;15.390;2023-05-20T05:39:53;97921.31;;;16.34;100.00
12759;BME280;20944;47.048;15.390;2023-05-20T05:42:22;97916.81;;;16.36;100.00
12759;BME280;20944;47.048;15.390;2023-05-20T05:44:50;97920.03;;;16.43;100.00
12759;BME280;20944;47.048;15.390;2023-05-20T05:47:18;97915.13;;;16.53;100.00
12759;BME280;20944;47.048;15.390;2023-05-20T05:49:47;97914.00;;;16.58;100.00
12759;BME280;20944;47.048;15.390;2023-05-20T05:52:15;97923.91;;;16.74;100.00
12759;BME280;20944;47.048;15.390;2023-05-20T05:54:44;97919.09;;;16.82;100.00
12759;BME280;20944;47.048;15.390;2023-05-20T05:57:13;97918.56;;;16.92;100.00
12759;BME280;20944;47.048;15.390;2023-05-20T05:59:42;97864.16;;;16.68;100.00
12759;BME280;20944;47.048;15.390;2023-05-20T06:02:10;97912.13;;;17.15;100.00
12759;BME280;20944;47.048;15.390;2023-05-20T06:04:40;97878.00;;;17.09;100.00
12759;BME280;20944;47.048;15.390;2023-05-20T06:07:08;97892.75;;;17.15;100.00
12759;BME280;20944;47.048;15.390;2023-05-20T06:09:37;97884.75;;;17.16;100.00
12759;BME280;20944;47.048;15.390;2023-05-20T06:12:05;97899.53;;;17.38;100.00
12759;BME280;20944;47.048;15.390;2023-05-20T06:14:35;97909.66;;;17.47;100.00
12759;BME280;20944;47.048;15.390;2023-05-20T06:17:04;97908.13;;;17.60;100.00
12759;BME280;20944;47.048;15.390;2023-05-20T06:19:32;97902.19;;;17.55;100.00
12759;BME280;20944;47.048;15.390;2023-05-20T06:22:01;97896.50;;;17.45;100.00
12759;BME280;20944;47.048;15.390;2023-05-20T06:24:29;97908.72;;;17.65;100.00
12759;BME280;20944;47.048;15.390;2023-05-20T06:26:57;97915.59;;;17.87;100.00
12759;BME280;20944;47.048;15.390;2023-05-20T06:29:26;97911.44;;;17.98;98.06
12759;BME280;20944;47.048;15.390;2023-05-20T06:31:55;97908.19;;;18.09;98.67
12759;BME280;20944;47.048;15.390;2023-05-20T06:34:24;97889.84;;;17.89;98.55
12759;BME280;20944;47.048;15.390;2023-05-20T06:36:52;97884.41;;;17.92;97.37
12759;BME280;20944;47.048;15.390;2023-05-20T06:39:21;97908.91;;;18.13;96.94
12759;BME280;20944;47.048;15.390;2023-05-20T06:41:50;97902.56;;;18.15;95.84
12759;BME280;20944;47.048;15.390;2023-05-20T06:44:19;97906.53;;;18.40;95.88
12759;BME280;20944;47.048;15.390;2023-05-20T06:46:47;97903.97;;;18.54;94.12
12759;BME280;20944;47.048;15.390;2023-05-20T06:49:17;97893.38;;;18.85;94.29
12759;BME280;20944;47.048;15.390;2023-05-20T06:51:45;97897.28;;;19.10;91.90
12759;BME280;20944;47.048;15.390;2023-05-20T06:54:13;97891.41;;;19.35;90.65
12759;BME280;20944;47.048;15.390;2023-05-20T06:56:42;97892.38;;;19.64;90.85
12759;BME280;20944;47.048;15.390;2023-05-20T06:59:11;97880.81;;;19.93;87.85
12759;BME280;20944;47.048;15.390;2023-05-20T07:01:39;97879.69;;;20.12;83.62
12759;BME280;20944;47.048;15.390;2023-05-20T07:04:07;97877.75;;;20.28;81.47
12759;BME280;20944;47.048;15.390;2023-05-20T07:06:37;97867.88;;;20.16;81.54
12759;BME280;20944;47.048;15.390;2023-05-20T07:09:05;97870.63;;;20.14;80.71
12759;BME280;20944;47.048;15.390;2023-05-20T07:11:34;97873.75;;;20.35;81.67
12759;BME280;20944;47.048;15.390;2023-05-20T07:14:02;97872.31;;;20.44;82.04
12759;BME280;20944;47.048;15.390;2023-05-20T07:16:31;97860.25;;;20.53;81.62
12759;BME280;20944;47.048;15.390;2023-05-20T07:19:01;97815.00;;;20.53;81.73
12759;BME280;20944;47.048;15.390;2023-05-20T07:21:29;97856.72;;;20.93;78.98
12759;BME280;20944;47.048;15.390;2023-05-20T07:23:59;97853.38;;;20.90;79.13
12759;BME280;20944;47.048;15.390;2023-05-20T07:26:27;97858.88;;;21.01;79.92
12759;BME280;20944;47.048;15.390;2023-05-20T07:28:59;97841.47;;;20.95;76.66
12759;BME280;20944;47.048;15.390;2023-05-20T07:31:27;97855.97;;;21.04;76.08
12759;BME280;20944;47.048;15.390;2023-05-20T07:33:56;97846.31;;;21.16;77.29
12759;BME280;20944;47.048;15.390;2023-05-20T07:36:25;97853.59;;;21.26;76.00
12759;BME280;20944;47.048;15.390;2023-05-20T07:38:54;97848.94;;;21.30;75.36
12759;BME280;20944;47.048;15.390;2023-05-20T07:41:36;97846.63;;;21.11;75.21
12759;BME280;20944;47.048;15.390;2023-05-20T07:44:05;97789.44;;;20.50;78.09
12759;BME280;20944;47.048;15.390;2023-05-20T07:46:34;97852.44;;;20.64;77.62
12759;BME280;20944;47.048;15.390;2023-05-20T07:49:04;97841.97;;;20.61;79.16
12759;BME280;20944;47.048;15.390;2023-05-20T07:51:32;97836.44;;;20.91;79.78
12759;BME280;20944;47.048;15.390;2023-05-20T07:54:01;97842.41;;;21.21;75.03
12759;BME280;20944;47.048;15.390;2023-05-20T07:56:29;97841.41;;;21.10;76.91
12759;BME280;20944;47.048;15.390;2023-05-20T07:58:59;97785.34;;;20.71;77.47
12759;BME280;20944;47.048;15.390;2023-05-20T08:01:29;97845.34;;;21.17;78.28
12759;BME280;20944;47.048;15.390;2023-05-20T08:03:57;97822.53;;;21.00;79.21
12759;BME280;20944;47.048;15.390;2023-05-20T08:06:26;97852.41;;;21.18;77.42
12759;BME280;20944;47.048;15.390;2023-05-20T08:08:55;97789.31;;;20.79;78.69
12759;BME280;20944;47.048;15.390;2023-05-20T08:11:24;97847.28;;;21.15;76.62
12759;BME280;20944;47.048;15.390;2023-05-20T08:13:52;97836.59;;;21.02;78.51
12759;BME280;20944;47.048;15.390;2023-05-20T08:16:22;97846.91;;;20.94;79.33
12759;BME280;20944;47.048;15.390;2023-05-20T08:18:50;97830.31;;;20.76;81.40
12759;BME280;20944;47.048;15.390;2023-05-20T08:21:18;97807.44;;;20.59;79.85
12759;BME280;20944;47.048;15.390;2023-05-20T08:23:48;97823.09;;;20.78;80.57
12759;BME280;20944;47.048;15.390;2023-05-20T08:26:16;97828.03;;;20.97;79.41
12759;BME280;20944;47.048;15.390;2023-05-20T08:28:45;97817.94;;;21.02;79.00
12759;BME280;20944;47.048;15.390;2023-05-20T08:31:14;97825.38;;;20.97;77.84
12759;BME280;20944;47.048;15.390;2023-05-20T08:33:45;97827.16;;;20.84;78.29
12759;BME280;20944;47.048;15.390;2023-05-20T08:36:13;97821.31;;;20.91;80.47
12759;BME280;20944;47.048;15.390;2023-05-20T08:38:42;97823.44;;;21.26;80.63
12759;BME280;20944;47.048;15.390;2023-05-20T08:41:10;97819.84;;;21.52;75.54
12759;BME280;20944;47.048;15.390;2023-05-20T08:43:38;97815.69;;;21.74;75.83
12759;BME280;20944;47.048;15.390;2023-05-20T08:46:08;97810.03;;;21.91;75.02
12759;BME280;20944;47.048;15.390;2023-05-20T08:48:37;97803.50;;;22.08;74.43
12759;BME280;20944;47.048;15.390;2023-05-20T08:51:08;97806.38;;;22.18;73.12
12759;BME280;20944;47.048;15.390;2023-05-20T08:53:37;97792.06;;;22.19;71.84
12759;BME280;20944;47.048;15.390;2023-05-20T08:56:06;97791.06;;;21.70;73.13
12759;BME280;20944;47.048;15.390;2023-05-20T08:58:35;97784.84;;;21.95;75.63
12759;BME280;20944;47.048;15.390;2023-05-20T09:01:04;97789.84;;;21.87;75.89
12759;BME280;20944;47.048;15.390;2023-05-20T09:03:34;97779.97;;;21.64;73.90
12759;BME280;20944;47.048;15.390;2023-05-20T09:06:03;97789.44;;;21.55;75.37
12759;BME280;20944;47.048;15.390;2023-05-20T09:08:33;97783.69;;;21.61;76.75
12759;BME280;20944;47.048;15.390;2023-05-20T09:11:01;97781.34;;;21.82;74.09
12759;BME280;20944;47.048;15.390;2023-05-20T09:13:30;97773.28;;;22.07;76.70
12759;BME280;20944;47.048;15.390;2023-05-20T09:16:00;97779.22;;;22.24;70.61
12759;BME280;20944;47.048;15.390;2023-05-20T09:18:29;97783.53;;;22.50;73.86
12759;BME280;20944;47.048;15.390;2023-05-20T09:20:57;97779.31;;;22.83;70.07
12759;BME280;20944;47.048;15.390;2023-05-20T09:23:35;97779.22;;;23.08;68.19
12759;BME280;20944;47.048;15.390;2023-05-20T09:26:04;97779.00;;;23.23;66.58
12759;BME280;20944;47.048;15.390;2023-05-20T09:28:33;97774.44;;;23.47;67.63
12759;BME280;20944;47.048;15.390;2023-05-20T09:31:04;97740.25;;;23.39;68.62
12759;BME280;20944;47.048;15.390;2023-05-20T09:33:35;97781.66;;;23.80;67.46
12759;BME280;20944;47.048;15.390;2023-05-20T09:36:06;97782.03;;;23.87;66.21
12759;BME280;20944;47.048;15.390;2023-05-20T09:38:38;97772.06;;;23.78;64.76
12759;BME280;20944;47.048;15.390;2023-05-20T09:41:10;97771.19;;;23.66;66.12
12759;BME280;20944;47.048;15.390;2023-05-20T09:43:39;97759.09;;;23.49;66.25
12759;BME280;20944;47.048;15.390;2023-05-20T09:46:07;97762.16;;;23.45;66.32
12759;BME280;20944;47.048;15.390;2023-05-20T09:48:37;97730.09;;;23.09;64.35
12759;BME280;20944;47.048;15.390;2023-05-20T09:51:05;97756.13;;;23.07;68.20
12759;BME280;20944;47.048;15.390;2023-05-20T09:53:34;97763.00;;;22.99;66.21
12759;BME280;20944;47.048;15.390;2023-05-20T09:56:05;97766.91;;;23.06;63.35
12759;BME280;20944;47.048;15.390;2023-05-20T09:58:34;97758.81;;;23.30;62.49
12759;BME280;20944;47.048;15.390;2023-05-20T10:01:04;97758.50;;;23.57;63.56
12759;BME280;20944;47.048;15.390;2023-05-20T10:03:33;97764.66;;;23.70;63.71
12759;BME280;20944;47.048;15.390;2023-05-20T10:06:17;97748.19;;;23.75;61.42
12759;BME280;20944;47.048;15.390;2023-05-20T10:09:00;97750.78;;;23.76;59.25
12759;BME280;20944;47.048;15.390;2023-05-20T10:11:39;97756.50;;;23.72;59.90
12759;BME280;20944;47.048;15.390;2023-05-20T10:14:20;97726.78;;;23.52;60.92
12759;BME280;20944;47.048;15.390;2023-05-20T10:16:56;97747.97;;;23.66;58.93
12759;BME280;20944;47.048;15.390;2023-05-20T10:19:30;97723.25;;;23.52;57.63
12759;BME280;20944;47.048;15.390;2023-05-20T10:22:00;97739.75;;;23.57;57.23
12759;BME280;20944;47.048;15.390;2023-05-20T10:24:29;97744.75;;;23.50;56.00
12759;BME280;20944;47.048;15.390;2023-05-20T10:27:01;97719.94;;;23.37;57.61
12759;BME280;20944;47.048;15.390;2023-05-20T10:29:32;97737.47;;;23.52;56.59
12759;BME280;20944;47.048;15.390;2023-05-20T10:32:09;97732.38;;;23.60;56.18
12759;BME280;20944;47.048;15.390;2023-05-20T10:34:44;97736.00;;;23.59;56.85
12759;BME280;20944;47.048;15.390;2023-05-20T10:37:23;97735.44;;;23.67;56.53
12759;BME280;20944;47.048;15.390;2023-05-20T10:40:02;97710.97;;;23.60;58.02
12759;BME280;20944;47.048;15.390;2023-05-20T10:42:34;97736.91;;;23.71;56.49
12759;BME280;20944;47.048;15.390;2023-05-20T10:45:03;97677.41;;;23.45;59.12
12759;BME280;20944;47.048;15.390;2023-05-20T10:47:32;97738.81;;;24.03;58.63
12759;BME280;20944;47.048;15.390;2023-05-20T10:50:01;97712.13;;;24.12;54.75
12759;BME280;20944;47.048;15.390;2023-05-20T10:52:32;97724.44;;;24.15;51.98
12759;BME280;20944;47.048;15.390;2023-05-20T10:55:01;97706.72;;;23.80;55.42
12759;BME280;20944;47.048;15.390;2023-05-20T10:57:30;97732.50;;;24.04;56.44
12759;BME280;20944;47.048;15.390;2023-05-20T11:00:03;97729.91;;;24.36;59.66
12759;BME280;20944;47.048;15.390;2023-05-20T11:02:36;97718.59;;;24.64;55.72
12759;BME280;20944;47.048;15.390;2023-05-20T11:05:06;97718.97;;;24.92;53.74
12759;BME280;20944;47.048;15.390;2023-05-20T11:07:38;97718.91;;;25.03;53.97
12759;BME280;20944;47.048;15.390;2023-05-20T11:10:08;97721.56;;;25.14;50.61
12759;BME280;20944;47.048;15.390;2023-05-20T11:12:37;97717.03;;;25.15;50.67
12759;BME280;20944;47.048;15.390;2023-05-20T11:15:10;97718.69;;;24.95;50.42
12759;BME280;20944;47.048;15.390;2023-05-20T11:17:51;97711.56;;;24.84;51.06
12759;BME280;20944;47.048;15.390;2023-05-20T11:20:19;97709.28;;;24.80;51.88
12759;BME280;20944;47.048;15.390;2023-05-20T11:22:48;97707.47;;;24.69;51.27
12759;BME280;20944;47.048;15.390;2023-05-20T11:25:17;97703.47;;;24.63;54.21
12759;BME280;20944;47.048;15.390;2023-05-20T11:27:46;97698.22;;;24.73;53.47
12759;BME280;20944;47.048;15.390;2023-05-20T11:30:15;97688.75;;;24.90;53.09
12759;BME280;20944;47.048;15.390;2023-05-20T11:32:55;97647.94;;;24.65;54.26
12759;BME280;20944;47.048;15.390;2023-05-20T11:35:25;97687.25;;;24.97;53.07
12759;BME280;20944;47.048;15.390;2023-05-20T11:37:56;97683.63;;;24.87;53.21
12759;BME280;20944;47.048;15.390;2023-05-20T11:40:26;97674.88;;;24.85;51.61
12759;BME280;20944;47.048;15.390;2023-05-20T11:43:09;97674.75;;;24.86;52.18
12759;BME280;20944;47.048;15.390;2023-05-20T11:45:40;97683.31;;;24.80;51.88
12759;BME280;20944;47.048;15.390;2023-05-20T11:48:12;97688.06;;;24.56;50.91
12759;BME280;20944;47.048;15.390;2023-05-20T11:50:42;97644.44;;;24.21;50.66
12759;BME280;20944;47.048;15.390;2023-05-20T11:53:14;97693.69;;;24.53;50.46
12759;BME280;20944;47.048;15.390;2023-05-20T11:55:45;97678.84;;;24.69;50.23
12759;BME280;20944;47.048;15.390;2023-05-20T11:58:18;97676.56;;;24.86;52.09
12759;BME280;20944;47.048;15.390;2023-05-20T12:00:48;97674.09;;;24.94;50.90
12759;BME280;20944;47.048;15.390;2023-05-20T12:03:31;97677.59;;;25.06;50.03
12759;BME280;20944;47.048;15.390;2023-05-20T12:06:00;97670.00;;;25.11;50.05
12759;BME280;20944;47.048;15.390;2023-05-20T12:08:28;97667.81;;;25.25;49.93
12759;BME280;20944;47.048;15.390;2023-05-20T12:10:57;97628.22;;;25.08;50.23
12759;BME280;20944;47.048;15.390;2023-05-20T12:13:25;97666.50;;;25.41;49.87
12759;BME280;20944;47.048;15.390;2023-05-20T12:15:55;97499.06;;;24.52;53.06
12759;BME280;20944;47.048;15.390;2023-05-20T12:18:23;97671.94;;;25.60;54.67
12759;BME280;20944;47.048;15.390;2023-05-20T12:20:51;97674.34;;;25.63;48.85
12759;BME280;20944;47.048;15.390;2023-05-20T12:23:20;97664.41;;;25.54;47.58
12759;BME280;20944;47.048;15.390;2023-05-20T12:25:48;97660.38;;;25.39;48.65
12759;BME280;20944;47.048;15.390;2023-05-20T12:28:16;97665.34;;;25.34;49.96
12759;BME280;20944;47.048;15.390;2023-05-20T12:30:45;97670.94;;;25.31;50.09
12759;BME280;20944;47.048;15.390;2023-05-20T12:33:15;97668.66;;;25.26;49.88
12759;BME280;20944;47.048;15.390;2023-05-20T12:35:43;97664.56;;;25.22;50.42
12759;BME280;20944;47.048;15.390;2023-05-20T12:38:12;97656.50;;;25.22;50.37
12759;BME280;20944;47.048;15.390;2023-05-20T12:40:40;97641.66;;;24.97;49.72
12759;BME280;20944;47.048;15.390;2023-05-20T12:43:09;97649.94;;;24.94;50.70
12759;BME280;20944;47.048;15.390;2023-05-20T12:45:37;97655.06;;;24.97;50.55
12759;BME280;20944;47.048;15.390;2023-05-20T12:48:06;97641.72;;;25.07;52.34
12759;BME280;20944;47.048;15.390;2023-05-20T12:50:35;97654.16;;;25.28;48.58
12759;BME280;20944;47.048;15.390;2023-05-20T12:53:04;97652.09;;;25.51;49.56
12759;BME280;20944;47.048;15.390;2023-05-20T12:55:32;97658.41;;;25.71;53.11
12759;BME280;20944;47.048;15.390;2023-05-20T12:58:00;97650.41;;;25.81;50.12